Mount Joy, Pennsylvania
Current Conditions -  °F | °C
As of 10:53 AM on Friday 19 Dec 2014 (Local Time) from KLNS Reporting Station
Overcast Overcast  
Wind Chill: 28°   Ceiling: 3500
Heat Index: 37°   Visibility: 10mi
Dew Point: 22°   Wind: 16mph
Humidity: 54%   Direction: 330°NNW
Pressure: 30.1"   Gusts: NA
Location:  40.11°N, 76.51°W
Report Text: KLNS 191553Z 33014KT 10SM OVC035 03/M06 A3010 RMK AO2 SLP195 T00281056
Loading
Personal Weather Stations






























Interactive Weather Map New forecast layout! Learn more

10-Day Weather Forecast

Advertisements
Track Severe Weather on mobile